Kriti Jade — SVAT6 — position and weather

sailwx.info

Track history (hours):
 
Tides and Currents Weather Stations Pressure Air Temp Water Temp Dewpoint Dewpoint Depression Visibility Wind Speed Wind Dir Waves Ship Positions

Kriti Jade

Last reported at 2017-Oct-19 00:23 UTC. Time now 2017-Oct-19 02:15 UTC.
Position N 39°10' E 025°27'.

Length 183 m; draft 8.3 m.

Type: Ship. MMSI: 240942000.

Date/timePositionNaut miles runAvg speedWind from/ knotsBaromVisibWave heightAir tempDewpointWater temp
2017-Oct-19 00:23N 39°10' E 025°27'511.9
2017-Oct-18 23:56N 39°06' E 025°23'256 9.5
2017-Oct-17 20:59N 36°19' E 021°18'612.4
2017-Oct-17 20:30N 36°19' E 021°10'612.4
2017-Oct-17 20:00N 36°19' E 021°03'1112.2
2017-Oct-17 19:04N 36°19' E 020°49'112.3
2017-Oct-17 18:59N 36°19' E 020°47'3912.4
2017-Oct-17 15:51N 36°20' E 019°59'512.2
2017-Oct-17 15:27N 36°20' E 019°53'612.3
2017-Oct-17 15:00N 36°20' E 019°46'612.2
2017-Oct-17 14:30N 36°20' E 019°39'612.2
2017-Oct-17 13:59N 36°20' E 019°31'612.3
2017-Oct-17 13:30N 36°20' E 019°24'612.3
2017-Oct-17 13:00N 36°20' E 019°16'612.2
2017-Oct-17 12:30N 36°20' E 019°08'612.4
2017-Oct-17 12:00N 36°20' E 019°01'712.3
2017-Oct-17 11:28N 36°20' E 018°52'612.3
2017-Oct-17 10:59N 36°20' E 018°45'612.4
2017-Oct-17 10:31N 36°21' E 018°38'612.2
2017-Oct-17 10:00N 36°20' E 018°30'612.4
2017-Oct-17 09:30N 36°20' E 018°22'612.5
2017-Oct-17 09:00N 36°20' E 018°15'612.6
2017-Oct-17 08:30N 36°20' E 018°07'14612.1
2017-Oct-16 20:29N 36°21' E 015°06'612.7
2017-Oct-16 19:59N 36°21' E 014°58'1012.8
2017-Oct-16 19:11N 36°21' E 014°45'212.7
2017-Oct-16 19:00N 36°22' E 014°42'612.9
2017-Oct-16 18:30N 36°23' E 014°35'713.1
2017-Oct-16 18:00N 36°25' E 014°27'612.9
2017-Oct-16 17:30N 36°26' E 014°19'713.0
2017-Oct-16 16:59N 36°28' E 014°11'612.8
2017-Oct-16 16:30N 36°29' E 014°03'612.8
2017-Oct-16 16:00N 36°30' E 013°56'612.5
2017-Oct-16 15:30N 36°32' E 013°48'612.5
2017-Oct-16 15:00N 36°33' E 013°41'1212.4
2017-Oct-16 14:00N 36°36' E 013°25'612.3
2017-Oct-16 13:30N 36°37' E 013°18'612.4
2017-Oct-16 13:00N 36°39' E 013°10'612.5
2017-Oct-16 12:30N 36°40' E 013°03'612.6
2017-Oct-16 12:00N 36°42' E 012°55'612.2
2017-Oct-16 11:30N 36°44' E 012°48'612.2
2017-Oct-16 11:00N 36°47' E 012°41'612.2
2017-Oct-16 10:30N 36°49' E 012°34'612.2
2017-Oct-16 10:00N 36°52' E 012°28'712.3
2017-Oct-16 09:29N 36°55' E 012°20'612.6
2017-Oct-16 09:00N 36°57' E 012°13'612.6
2017-Oct-16 08:30N 37°00' E 012°06'4712.5
2017-Oct-16 04:44N 37°21' E 011°13'312.4
2017-Oct-16 04:29N 37°22' E 011°10'612.4
2017-Oct-16 04:00N 37°25' E 011°03'8512.2
2017-Oct-15 21:03N 37°44' E 009°18'31011.8
2017-Oct-14 18:45N 37°16' E 002°50'311.8
2017-Oct-14 18:30N 37°15' E 002°46'611.6
2017-Oct-14 18:00N 37°14' E 002°39'611.7
2017-Oct-14 17:30N 37°12' E 002°32'611.8
2017-Oct-14 17:00N 37°11' E 002°25'611.7
2017-Oct-14 16:30N 37°09' E 002°18'611.6
2017-Oct-14 16:00N 37°08' E 002°11'611.7
2017-Oct-14 15:30N 37°06' E 002°04'611.7
2017-Oct-14 15:00N 37°04' E 001°56'611.6
2017-Oct-14 14:30N 37°03' E 001°49'711.9
2017-Oct-14 13:57N 37°01' E 001°41'1012.0
2017-Oct-14 13:06N 36°58' E 001°29'212.0
2017-Oct-14 12:58N 36°58' E 001°27'1312.2
2017-Oct-14 11:56N 36°55' E 001°12'512.0
2017-Oct-14 11:29N 36°54' E 001°06'1212.0
2017-Oct-14 10:29N 36°51' E 000°51'712.2
2017-Oct-14 09:53N 36°50' E 000°42'512.5
2017-Oct-14 09:30N 36°48' E 000°36'612.6
2017-Oct-14 09:00N 36°46' E 000°29'612.4
2017-Oct-14 08:30N 36°44' E 000°21'612.2
2017-Oct-14 08:00N 36°43' E 000°14'612.2
2017-Oct-14 07:30N 36°41' E 000°06'1012.3
2017-Oct-14 06:39N 36°38' W 000°06'412.4
2017-Oct-14 06:18N 36°37' W 000°11'412.3
2017-Oct-14 05:57N 36°36' W 000°16'1412.2
2017-Oct-14 04:47N 36°32' W 000°34'412.3
2017-Oct-14 04:29N 36°31' W 000°38'612.4
2017-Oct-14 04:00N 36°30' W 000°45'712.2
2017-Oct-14 03:26N 36°28' W 000°53'512.0
2017-Oct-14 03:00N 36°27' W 000°60'612.1
2017-Oct-14 02:29N 36°25' W 001°07'612.4
2017-Oct-14 01:58N 36°24' W 001°15'612.6
2017-Oct-14 01:30N 36°21' W 001°22'713.0
2017-Oct-14 01:00N 36°19' W 001°29'612.9
2017-Oct-14 00:30N 36°18' W 001°37'712.8
2017-Oct-13 23:56N 36°16' W 001°46'712.9
2017-Oct-13 23:23N 36°15' W 001°54'15412.4
2017-Oct-13 11:01N 36°00' W 005°04'612.8
2017-Oct-13 10:34N 35°60' W 005°11'113.0
2017-Oct-13 10:30N 35°60' W 005°12'612.9
2017-Oct-13 10:00N 35°59' W 005°20'612.5
2017-Oct-13 09:30N 35°57' W 005°27'  
Track history (hours):
 
Tides and Currents Weather Stations Pressure Air Temp Water Temp Dewpoint Dewpoint Depression Visibility Wind Speed Wind Dir Waves Ship Positions

Kriti Jade

Last reported at 2017-Oct-19 00:23 UTC. Time now 2017-Oct-19 02:15 UTC.
Position N 39°10' E 025°27'.

Length 183 m; draft 8.3 m.

Type: Ship. MMSI: 240942000.

Date/timePositionNaut miles runAvg speedWind from/ knotsBaromVisibWave heightAir tempDewpointWater temp
2017-Oct-19 00:23N 39°10' E 025°27'511.9
2017-Oct-18 23:56N 39°06' E 025°23'256 9.5
2017-Oct-17 20:59N 36°19' E 021°18'612.4
2017-Oct-17 20:30N 36°19' E 021°10'612.4
2017-Oct-17 20:00N 36°19' E 021°03'1112.2
2017-Oct-17 19:04N 36°19' E 020°49'112.3
2017-Oct-17 18:59N 36°19' E 020°47'3912.4
2017-Oct-17 15:51N 36°20' E 019°59'512.2
2017-Oct-17 15:27N 36°20' E 019°53'612.3
2017-Oct-17 15:00N 36°20' E 019°46'612.2
2017-Oct-17 14:30N 36°20' E 019°39'612.2
2017-Oct-17 13:59N 36°20' E 019°31'612.3
2017-Oct-17 13:30N 36°20' E 019°24'612.3
2017-Oct-17 13:00N 36°20' E 019°16'612.2
2017-Oct-17 12:30N 36°20' E 019°08'612.4
2017-Oct-17 12:00N 36°20' E 019°01'712.3
2017-Oct-17 11:28N 36°20' E 018°52'612.3
2017-Oct-17 10:59N 36°20' E 018°45'612.4
2017-Oct-17 10:31N 36°21' E 018°38'612.2
2017-Oct-17 10:00N 36°20' E 018°30'612.4
2017-Oct-17 09:30N 36°20' E 018°22'612.5
2017-Oct-17 09:00N 36°20' E 018°15'612.6
2017-Oct-17 08:30N 36°20' E 018°07'14612.1
2017-Oct-16 20:29N 36°21' E 015°06'612.7
2017-Oct-16 19:59N 36°21' E 014°58'1012.8
2017-Oct-16 19:11N 36°21' E 014°45'212.7
2017-Oct-16 19:00N 36°22' E 014°42'612.9
2017-Oct-16 18:30N 36°23' E 014°35'713.1
2017-Oct-16 18:00N 36°25' E 014°27'612.9
2017-Oct-16 17:30N 36°26' E 014°19'713.0
2017-Oct-16 16:59N 36°28' E 014°11'612.8
2017-Oct-16 16:30N 36°29' E 014°03'612.8
2017-Oct-16 16:00N 36°30' E 013°56'612.5
2017-Oct-16 15:30N 36°32' E 013°48'612.5
2017-Oct-16 15:00N 36°33' E 013°41'1212.4
2017-Oct-16 14:00N 36°36' E 013°25'612.3
2017-Oct-16 13:30N 36°37' E 013°18'612.4
2017-Oct-16 13:00N 36°39' E 013°10'612.5
2017-Oct-16 12:30N 36°40' E 013°03'612.6
2017-Oct-16 12:00N 36°42' E 012°55'612.2
2017-Oct-16 11:30N 36°44' E 012°48'612.2
2017-Oct-16 11:00N 36°47' E 012°41'612.2
2017-Oct-16 10:30N 36°49' E 012°34'612.2
2017-Oct-16 10:00N 36°52' E 012°28'712.3
2017-Oct-16 09:29N 36°55' E 012°20'612.6
2017-Oct-16 09:00N 36°57' E 012°13'612.6
2017-Oct-16 08:30N 37°00' E 012°06'4712.5
2017-Oct-16 04:44N 37°21' E 011°13'312.4
2017-Oct-16 04:29N 37°22' E 011°10'612.4
2017-Oct-16 04:00N 37°25' E 011°03'8512.2
2017-Oct-15 21:03N 37°44' E 009°18'31011.8
2017-Oct-14 18:45N 37°16' E 002°50'311.8
2017-Oct-14 18:30N 37°15' E 002°46'611.6
2017-Oct-14 18:00N 37°14' E 002°39'611.7
2017-Oct-14 17:30N 37°12' E 002°32'611.8
2017-Oct-14 17:00N 37°11' E 002°25'611.7
2017-Oct-14 16:30N 37°09' E 002°18'611.6
2017-Oct-14 16:00N 37°08' E 002°11'611.7
2017-Oct-14 15:30N 37°06' E 002°04'611.7
2017-Oct-14 15:00N 37°04' E 001°56'611.6
2017-Oct-14 14:30N 37°03' E 001°49'711.9
2017-Oct-14 13:57N 37°01' E 001°41'1012.0
2017-Oct-14 13:06N 36°58' E 001°29'212.0
2017-Oct-14 12:58N 36°58' E 001°27'1312.2
2017-Oct-14 11:56N 36°55' E 001°12'512.0
2017-Oct-14 11:29N 36°54' E 001°06'1212.0
2017-Oct-14 10:29N 36°51' E 000°51'712.2
2017-Oct-14 09:53N 36°50' E 000°42'512.5
2017-Oct-14 09:30N 36°48' E 000°36'612.6
2017-Oct-14 09:00N 36°46' E 000°29'612.4
2017-Oct-14 08:30N 36°44' E 000°21'612.2
2017-Oct-14 08:00N 36°43' E 000°14'612.2
2017-Oct-14 07:30N 36°41' E 000°06'1012.3
2017-Oct-14 06:39N 36°38' W 000°06'412.4
2017-Oct-14 06:18N 36°37' W 000°11'412.3
2017-Oct-14 05:57N 36°36' W 000°16'1412.2
2017-Oct-14 04:47N 36°32' W 000°34'412.3
2017-Oct-14 04:29N 36°31' W 000°38'612.4
2017-Oct-14 04:00N 36°30' W 000°45'712.2
2017-Oct-14 03:26N 36°28' W 000°53'512.0
2017-Oct-14 03:00N 36°27' W 000°60'612.1
2017-Oct-14 02:29N 36°25' W 001°07'612.4
2017-Oct-14 01:58N 36°24' W 001°15'612.6
2017-Oct-14 01:30N 36°21' W 001°22'713.0
2017-Oct-14 01:00N 36°19' W 001°29'612.9
2017-Oct-14 00:30N 36°18' W 001°37'712.8
2017-Oct-13 23:56N 36°16' W 001°46'712.9
2017-Oct-13 23:23N 36°15' W 001°54'15412.4
2017-Oct-13 11:01N 36°00' W 005°04'612.8
2017-Oct-13 10:34N 35°60' W 005°11'113.0
2017-Oct-13 10:30N 35°60' W 005°12'612.9
2017-Oct-13 10:00N 35°59' W 005°20'612.5
2017-Oct-13 09:30N 35°57' W 005°27'  

Dump ship's entire track history